sensor_id;sensor_type;location;lat;lon;timestamp;pressure;altitude;pressure_sealevel;temperature;humidity
65013;BME280;51715;39.432;-77.518;2023-07-20T00:01:07;99459.89;;;34.63;26.87
65013;BME280;51715;39.432;-77.518;2023-07-20T00:03:35;99460.62;;;34.56;27.05
65013;BME280;51715;39.432;-77.518;2023-07-20T00:06:03;99460.01;;;34.70;27.39
65013;BME280;51715;39.432;-77.518;2023-07-20T00:08:31;99462.40;;;34.42;27.63
65013;BME280;51715;39.432;-77.518;2023-07-20T00:11:00;99463.97;;;34.34;28.17
65013;BME280;51715;39.432;-77.518;2023-07-20T00:13:28;99466.94;;;34.21;28.25
65013;BME280;51715;39.432;-77.518;2023-07-20T00:15:56;99462.10;;;34.30;28.42
65013;BME280;51715;39.432;-77.518;2023-07-20T00:18:24;99466.73;;;34.18;28.39
65013;BME280;51715;39.432;-77.518;2023-07-20T00:20:52;99467.17;;;34.08;28.67
65013;BME280;51715;39.432;-77.518;2023-07-20T00:23:20;99465.18;;;33.82;28.86
65013;BME280;51715;39.432;-77.518;2023-07-20T00:25:48;99465.91;;;33.88;29.56
65013;BME280;51715;39.432;-77.518;2023-07-20T00:28:17;99463.57;;;33.72;29.68
65013;BME280;51715;39.432;-77.518;2023-07-20T00:30:45;99466.54;;;33.55;29.45
65013;BME280;51715;39.432;-77.518;2023-07-20T00:33:16;99464.85;;;33.38;30.42
65013;BME280;51715;39.432;-77.518;2023-07-20T00:35:45;99463.67;;;33.23;29.63
65013;BME280;51715;39.432;-77.518;2023-07-20T00:38:13;99465.48;;;33.07;29.98
65013;BME280;51715;39.432;-77.518;2023-07-20T00:40:42;99469.31;;;33.36;30.16
65013;BME280;51715;39.432;-77.518;2023-07-20T00:43:10;99473.68;;;32.95;30.26
65013;BME280;51715;39.432;-77.518;2023-07-20T00:45:39;99481.15;;;33.10;30.51
65013;BME280;51715;39.432;-77.518;2023-07-20T00:48:08;99488.51;;;32.73;30.65
65013;BME280;51715;39.432;-77.518;2023-07-20T00:50:36;99499.31;;;32.59;31.00
65013;BME280;51715;39.432;-77.518;2023-07-20T00:53:05;99507.70;;;32.48;31.42
65013;BME280;51715;39.432;-77.518;2023-07-20T00:55:33;99508.31;;;32.62;31.61
65013;BME280;51715;39.432;-77.518;2023-07-20T00:58:01;99508.69;;;32.52;31.52
65013;BME280;51715;39.432;-77.518;2023-07-20T01:00:30;99511.40;;;32.41;31.88
65013;BME280;51715;39.432;-77.518;2023-07-20T01:02:59;99517.42;;;32.29;31.99
65013;BME280;51715;39.432;-77.518;2023-07-20T01:05:35;99527.68;;;32.16;32.26
65013;BME280;51715;39.432;-77.518;2023-07-20T01:08:09;99531.21;;;32.05;32.52
65013;BME280;51715;39.432;-77.518;2023-07-20T01:10:43;99530.99;;;32.37;32.56
65013;BME280;51715;39.432;-77.518;2023-07-20T01:13:14;99533.04;;;31.70;33.24
65013;BME280;51715;39.432;-77.518;2023-07-20T01:15:50;99532.19;;;32.05;33.32
65013;BME280;51715;39.432;-77.518;2023-07-20T01:18:18;99532.13;;;31.94;33.49
65013;BME280;51715;39.432;-77.518;2023-07-20T01:20:47;99533.94;;;31.57;33.60
65013;BME280;51715;39.432;-77.518;2023-07-20T01:25:40;99533.82;;;31.43;33.92
65013;BME280;51715;39.432;-77.518;2023-07-20T01:28:31;99532.39;;;31.34;34.35
65013;BME280;51715;39.432;-77.518;2023-07-20T01:31:23;99536.57;;;31.29;34.40
65013;BME280;51715;39.432;-77.518;2023-07-20T01:33:55;99544.59;;;31.19;34.32
65013;BME280;51715;39.432;-77.518;2023-07-20T01:36:26;99548.39;;;31.12;34.55
65013;BME280;51715;39.432;-77.518;2023-07-20T01:38:56;99548.73;;;31.08;34.60
65013;BME280;51715;39.432;-77.518;2023-07-20T01:41:25;99543.15;;;31.02;34.72
65013;BME280;51715;39.432;-77.518;2023-07-20T01:43:54;99543.21;;;30.96;34.87
65013;BME280;51715;39.432;-77.518;2023-07-20T01:46:25;99543.03;;;30.90;35.01
65013;BME280;51715;39.432;-77.518;2023-07-20T01:48:55;99544.52;;;31.08;35.29
65013;BME280;51715;39.432;-77.518;2023-07-20T01:51:23;99548.65;;;31.03;35.38
65013;BME280;51715;39.432;-77.518;2023-07-20T01:53:51;99555.13;;;30.89;35.53
65013;BME280;51715;39.432;-77.518;2023-07-20T01:56:20;99558.48;;;30.79;35.84
65013;BME280;51715;39.432;-77.518;2023-07-20T01:58:48;99564.29;;;30.92;35.82
65013;BME280;51715;39.432;-77.518;2023-07-20T02:01:16;99566.74;;;30.64;35.86
65013;BME280;51715;39.432;-77.518;2023-07-20T02:03:44;99571.47;;;30.56;35.99
65013;BME280;51715;39.432;-77.518;2023-07-20T02:06:13;99572.80;;;30.72;36.03
65013;BME280;51715;39.432;-77.518;2023-07-20T02:08:40;99573.28;;;30.59;36.17
65013;BME280;51715;39.432;-77.518;2023-07-20T02:11:09;99576.39;;;30.51;36.34
65013;BME280;51715;39.432;-77.518;2023-07-20T02:13:38;99578.39;;;30.47;36.34
65013;BME280;51715;39.432;-77.518;2023-07-20T02:16:06;99576.72;;;30.43;36.38
65013;BME280;51715;39.432;-77.518;2023-07-20T02:18:33;99579.54;;;30.20;36.42
65013;BME280;51715;39.432;-77.518;2023-07-20T02:21:01;99580.23;;;29.90;36.67
65013;BME280;51715;39.432;-77.518;2023-07-20T02:23:30;99579.09;;;30.28;37.07
65013;BME280;51715;39.432;-77.518;2023-07-20T02:25:58;99575.95;;;30.04;37.50
65013;BME280;51715;39.432;-77.518;2023-07-20T02:28:26;99578.32;;;29.94;37.40
65013;BME280;51715;39.432;-77.518;2023-07-20T02:30:54;99576.45;;;30.05;37.67
65013;BME280;51715;39.432;-77.518;2023-07-20T02:33:23;99576.60;;;29.79;37.54
65013;BME280;51715;39.432;-77.518;2023-07-20T02:35:51;99573.66;;;29.74;37.75
65013;BME280;51715;39.432;-77.518;2023-07-20T02:38:19;99568.24;;;29.68;37.73
65013;BME280;51715;39.432;-77.518;2023-07-20T02:40:48;99571.86;;;29.63;37.78
65013;BME280;51715;39.432;-77.518;2023-07-20T02:43:17;99574.44;;;29.60;37.44
65013;BME280;51715;39.432;-77.518;2023-07-20T02:45:45;99566.87;;;30.05;37.89
65013;BME280;51715;39.432;-77.518;2023-07-20T02:48:14;99570.93;;;29.78;37.89
65013;BME280;51715;39.432;-77.518;2023-07-20T02:50:44;99576.82;;;29.52;37.61
65013;BME280;51715;39.432;-77.518;2023-07-20T02:53:12;99600.81;;;29.92;37.87
65013;BME280;51715;39.432;-77.518;2023-07-20T02:55:40;99610.55;;;29.16;38.20
65013;BME280;51715;39.432;-77.518;2023-07-20T02:58:10;99616.90;;;29.40;38.42
65013;BME280;51715;39.432;-77.518;2023-07-20T03:00:38;99614.21;;;29.41;39.01
65013;BME280;51715;39.432;-77.518;2023-07-20T03:03:06;99610.78;;;28.62;40.19
65013;BME280;51715;39.432;-77.518;2023-07-20T03:05:35;99601.48;;;28.72;41.43
65013;BME280;51715;39.432;-77.518;2023-07-20T03:08:03;99601.63;;;28.90;40.42
65013;BME280;51715;39.432;-77.518;2023-07-20T03:10:32;99596.47;;;28.98;40.89
65013;BME280;51715;39.432;-77.518;2023-07-20T03:13:01;99593.13;;;28.98;41.21
65013;BME280;51715;39.432;-77.518;2023-07-20T03:15:28;99591.84;;;28.80;41.50
65013;BME280;51715;39.432;-77.518;2023-07-20T03:17:57;99586.77;;;28.31;41.36
65013;BME280;51715;39.432;-77.518;2023-07-20T03:20:25;99595.48;;;28.71;40.87
65013;BME280;51715;39.432;-77.518;2023-07-20T03:22:53;99600.26;;;28.74;40.29
65013;BME280;51715;39.432;-77.518;2023-07-20T03:25:22;99600.97;;;29.19;40.13
65013;BME280;51715;39.432;-77.518;2023-07-20T03:27:51;99597.86;;;28.89;40.11
65013;BME280;51715;39.432;-77.518;2023-07-20T03:30:19;99598.92;;;29.06;40.37
65013;BME280;51715;39.432;-77.518;2023-07-20T03:32:47;99602.31;;;29.21;40.41
65013;BME280;51715;39.432;-77.518;2023-07-20T03:35:16;99605.97;;;29.49;40.18
65013;BME280;51715;39.432;-77.518;2023-07-20T03:37:44;99608.39;;;29.27;39.92
65013;BME280;51715;39.432;-77.518;2023-07-20T03:40:13;99610.20;;;29.45;40.23
65013;BME280;51715;39.432;-77.518;2023-07-20T03:42:41;99612.91;;;29.44;40.71
65013;BME280;51715;39.432;-77.518;2023-07-20T03:45:09;99614.94;;;29.26;40.39
65013;BME280;51715;39.432;-77.518;2023-07-20T03:47:38;99619.44;;;29.48;40.55
65013;BME280;51715;39.432;-77.518;2023-07-20T03:50:07;99617.11;;;29.70;40.71
65013;BME280;51715;39.432;-77.518;2023-07-20T03:52:35;99615.81;;;29.71;40.75
65013;BME280;51715;39.432;-77.518;2023-07-20T03:55:03;99613.30;;;29.68;40.76
65013;BME280;51715;39.432;-77.518;2023-07-20T03:57:31;99615.74;;;29.41;40.85
65013;BME280;51715;39.432;-77.518;2023-07-20T03:59:59;99623.09;;;29.38;40.83
65013;BME280;51715;39.432;-77.518;2023-07-20T04:03:56;99629.26;;;29.09;40.33
65013;BME280;51715;39.432;-77.518;2023-07-20T04:06:25;99626.03;;;29.20;40.57
65013;BME280;51715;39.432;-77.518;2023-07-20T04:08:54;99615.26;;;28.76;40.91
65013;BME280;51715;39.432;-77.518;2023-07-20T04:11:22;99618.64;;;29.29;40.61
65013;BME280;51715;39.432;-77.518;2023-07-20T04:13:50;99615.24;;;29.07;41.26
65013;BME280;51715;39.432;-77.518;2023-07-20T04:16:18;99616.22;;;29.35;41.53
65013;BME280;51715;39.432;-77.518;2023-07-20T04:18:47;99614.46;;;28.84;42.03
65013;BME280;51715;39.432;-77.518;2023-07-20T04:21:15;99614.92;;;28.88;41.92
65013;BME280;51715;39.432;-77.518;2023-07-20T04:23:43;99618.52;;;28.85;41.55
65013;BME280;51715;39.432;-77.518;2023-07-20T04:26:11;99622.50;;;29.10;41.24
65013;BME280;51715;39.432;-77.518;2023-07-20T04:28:40;99626.07;;;28.87;41.62
65013;BME280;51715;39.432;-77.518;2023-07-20T04:31:11;99628.82;;;28.82;41.69
65013;BME280;51715;39.432;-77.518;2023-07-20T04:33:39;99631.23;;;28.77;41.86
65013;BME280;51715;39.432;-77.518;2023-07-20T04:36:07;99633.79;;;28.61;42.17
65013;BME280;51715;39.432;-77.518;2023-07-20T04:38:35;99633.25;;;28.60;42.15
65013;BME280;51715;39.432;-77.518;2023-07-20T04:41:04;99634.96;;;28.54;42.26
65013;BME280;51715;39.432;-77.518;2023-07-20T04:43:33;99633.70;;;28.47;42.67
65013;BME280;51715;39.432;-77.518;2023-07-20T04:46:01;99636.76;;;28.54;42.77
65013;BME280;51715;39.432;-77.518;2023-07-20T04:48:30;99633.48;;;28.36;42.92
65013;BME280;51715;39.432;-77.518;2023-07-20T04:50:58;99635.27;;;28.29;42.80
65013;BME280;51715;39.432;-77.518;2023-07-20T04:53:27;99640.50;;;28.08;42.50
65013;BME280;51715;39.432;-77.518;2023-07-20T04:55:55;99648.95;;;28.30;42.41
65013;BME280;51715;39.432;-77.518;2023-07-20T04:58:23;99638.07;;;28.33;42.33
65013;BME280;51715;39.432;-77.518;2023-07-20T05:00:52;99634.93;;;28.55;42.85
65013;BME280;51715;39.432;-77.518;2023-07-20T05:03:20;99628.12;;;28.21;42.82
65013;BME280;51715;39.432;-77.518;2023-07-20T05:05:48;99626.26;;;28.13;43.04
65013;BME280;51715;39.432;-77.518;2023-07-20T05:08:17;99625.67;;;27.50;45.04
65013;BME280;51715;39.432;-77.518;2023-07-20T05:10:45;99625.85;;;27.51;44.59
65013;BME280;51715;39.432;-77.518;2023-07-20T05:13:13;99629.91;;;27.82;43.74
65013;BME280;51715;39.432;-77.518;2023-07-20T05:15:41;99628.87;;;28.06;43.12
65013;BME280;51715;39.432;-77.518;2023-07-20T05:18:10;99624.93;;;27.75;42.93
65013;BME280;51715;39.432;-77.518;2023-07-20T05:20:37;99627.77;;;28.11;42.43
65013;BME280;51715;39.432;-77.518;2023-07-20T05:23:05;99631.52;;;28.22;42.92
65013;BME280;51715;39.432;-77.518;2023-07-20T05:25:33;99634.03;;;28.25;42.82
65013;BME280;51715;39.432;-77.518;2023-07-20T05:28:01;99635.90;;;28.27;42.30
65013;BME280;51715;39.432;-77.518;2023-07-20T05:30:30;99634.64;;;28.05;42.30
65013;BME280;51715;39.432;-77.518;2023-07-20T05:32:58;99637.61;;;28.28;42.40
65013;BME280;51715;39.432;-77.518;2023-07-20T05:35:27;99642.87;;;27.75;42.17
65013;BME280;51715;39.432;-77.518;2023-07-20T05:37:57;99645.69;;;27.95;42.18
65013;BME280;51715;39.432;-77.518;2023-07-20T05:40:25;99646.96;;;28.18;42.53
65013;BME280;51715;39.432;-77.518;2023-07-20T05:42:54;99646.08;;;28.14;42.71
65013;BME280;51715;39.432;-77.518;2023-07-20T05:45:21;99640.85;;;28.10;42.39
65013;BME280;51715;39.432;-77.518;2023-07-20T05:47:49;99634.59;;;27.97;42.79
65013;BME280;51715;39.432;-77.518;2023-07-20T05:50:17;99630.73;;;27.70;42.69
65013;BME280;51715;39.432;-77.518;2023-07-20T05:52:46;99634.66;;;27.87;42.64
65013;BME280;51715;39.432;-77.518;2023-07-20T05:55:15;99635.75;;;27.77;42.88
65013;BME280;51715;39.432;-77.518;2023-07-20T05:57:43;99634.85;;;27.70;42.94
65013;BME280;51715;39.432;-77.518;2023-07-20T06:00:11;99631.46;;;27.67;43.02
65013;BME280;51715;39.432;-77.518;2023-07-20T06:02:39;99632.23;;;27.62;43.07
65013;BME280;51715;39.432;-77.518;2023-07-20T06:05:08;99637.63;;;27.60;42.79
65013;BME280;51715;39.432;-77.518;2023-07-20T06:07:37;99635.87;;;27.57;42.81
65013;BME280;51715;39.432;-77.518;2023-07-20T06:10:06;99641.16;;;27.73;43.06
65013;BME280;51715;39.432;-77.518;2023-07-20T06:12:34;99643.34;;;27.48;43.05
65013;BME280;51715;39.432;-77.518;2023-07-20T06:15:03;99645.05;;;27.14;43.16
65013;BME280;51715;39.432;-77.518;2023-07-20T06:17:32;99647.60;;;27.48;43.25
65013;BME280;51715;39.432;-77.518;2023-07-20T06:20:00;99642.77;;;27.03;43.82
65013;BME280;51715;39.432;-77.518;2023-07-20T06:22:27;99641.13;;;26.94;44.16
65013;BME280;51715;39.432;-77.518;2023-07-20T06:24:55;99632.25;;;26.79;44.32
65013;BME280;51715;39.432;-77.518;2023-07-20T06:27:22;99626.61;;;27.18;44.32
65013;BME280;51715;39.432;-77.518;2023-07-20T06:29:50;99620.73;;;26.90;44.49
65013;BME280;51715;39.432;-77.518;2023-07-20T06:32:18;99616.88;;;27.07;44.73
65013;BME280;51715;39.432;-77.518;2023-07-20T06:34:46;99607.88;;;27.02;44.83
65013;BME280;51715;39.432;-77.518;2023-07-20T06:37:14;99605.49;;;26.84;44.81
65013;BME280;51715;39.432;-77.518;2023-07-20T06:39:42;99606.71;;;27.11;44.82
65013;BME280;51715;39.432;-77.518;2023-07-20T06:42:09;99602.99;;;26.74;44.62
65013;BME280;51715;39.432;-77.518;2023-07-20T06:44:38;99602.09;;;27.24;44.18
65013;BME280;51715;39.432;-77.518;2023-07-20T06:47:06;99598.67;;;27.27;44.02
65013;BME280;51715;39.432;-77.518;2023-07-20T06:49:35;99597.83;;;27.32;43.89
65013;BME280;51715;39.432;-77.518;2023-07-20T06:52:04;99600.10;;;26.90;43.83
65013;BME280;51715;39.432;-77.518;2023-07-20T06:54:31;99601.49;;;26.91;43.80
65013;BME280;51715;39.432;-77.518;2023-07-20T06:56:59;99600.67;;;27.34;43.78
65013;BME280;51715;39.432;-77.518;2023-07-20T06:59:28;99600.82;;;27.09;43.77
65013;BME280;51715;39.432;-77.518;2023-07-20T07:01:55;99596.59;;;26.86;43.70
65013;BME280;51715;39.432;-77.518;2023-07-20T07:04:23;99597.07;;;26.80;43.82
65013;BME280;51715;39.432;-77.518;2023-07-20T07:06:52;99597.20;;;27.19;43.89
65013;BME280;51715;39.432;-77.518;2023-07-20T07:09:20;99595.52;;;27.16;43.53
65013;BME280;51715;39.432;-77.518;2023-07-20T07:11:49;99593.05;;;27.11;43.67
65013;BME280;51715;39.432;-77.518;2023-07-20T07:14:17;99591.60;;;26.82;43.96
65013;BME280;51715;39.432;-77.518;2023-07-20T07:16:45;99596.10;;;26.98;44.09
65013;BME280;51715;39.432;-77.518;2023-07-20T07:19:14;99596.79;;;26.68;44.06
65013;BME280;51715;39.432;-77.518;2023-07-20T07:21:42;99593.63;;;26.82;44.20
65013;BME280;51715;39.432;-77.518;2023-07-20T07:24:11;99591.55;;;26.79;44.32
65013;BME280;51715;39.432;-77.518;2023-07-20T07:26:39;99594.55;;;26.61;44.10
65013;BME280;51715;39.432;-77.518;2023-07-20T07:29:07;99597.40;;;27.07;44.10
65013;BME280;51715;39.432;-77.518;2023-07-20T07:31:35;99595.03;;;26.79;43.77
65013;BME280;51715;39.432;-77.518;2023-07-20T07:34:03;99595.20;;;26.79;43.51
65013;BME280;51715;39.432;-77.518;2023-07-20T07:36:32;99598.85;;;26.83;43.22
65013;BME280;51715;39.432;-77.518;2023-07-20T07:39:00;99597.43;;;26.67;43.04
65013;BME280;51715;39.432;-77.518;2023-07-20T07:41:27;99594.59;;;26.73;42.97
65013;BME280;51715;39.432;-77.518;2023-07-20T07:43:56;99600.32;;;26.80;42.96
65013;BME280;51715;39.432;-77.518;2023-07-20T07:46:24;99597.20;;;26.88;43.06
65013;BME280;51715;39.432;-77.518;2023-07-20T07:48:52;99599.54;;;26.79;43.19
65013;BME280;51715;39.432;-77.518;2023-07-20T07:51:21;99592.31;;;26.65;43.22
65013;BME280;51715;39.432;-77.518;2023-07-20T07:53:49;99588.17;;;26.50;43.74
65013;BME280;51715;39.432;-77.518;2023-07-20T07:56:16;99587.17;;;26.45;43.66
65013;BME280;51715;39.432;-77.518;2023-07-20T07:58:44;99592.39;;;26.38;43.80
65013;BME280;51715;39.432;-77.518;2023-07-20T08:01:13;99596.48;;;26.33;43.48
65013;BME280;51715;39.432;-77.518;2023-07-20T08:03:41;99598.68;;;26.53;43.58
65013;BME280;51715;39.432;-77.518;2023-07-20T08:06:09;99597.21;;;26.25;43.49
65013;BME280;51715;39.432;-77.518;2023-07-20T08:08:37;99595.05;;;26.24;43.50
65013;BME280;51715;39.432;-77.518;2023-07-20T08:11:05;99589.70;;;26.51;43.65
65013;BME280;51715;39.432;-77.518;2023-07-20T08:13:33;99592.16;;;26.24;43.49
65013;BME280;51715;39.432;-77.518;2023-07-20T08:16:02;99591.65;;;26.19;43.51
65013;BME280;51715;39.432;-77.518;2023-07-20T08:18:30;99580.83;;;26.66;43.33
65013;BME280;51715;39.432;-77.518;2023-07-20T08:20:59;99581.54;;;26.13;43.43
65013;BME280;51715;39.432;-77.518;2023-07-20T08:23:26;99583.91;;;26.37;43.41
65013;BME280;51715;39.432;-77.518;2023-07-20T08:25:54;99583.11;;;26.47;43.65
65013;BME280;51715;39.432;-77.518;2023-07-20T08:28:22;99585.97;;;26.14;43.96
65013;BME280;51715;39.432;-77.518;2023-07-20T08:30:51;99587.65;;;26.05;44.10
65013;BME280;51715;39.432;-77.518;2023-07-20T08:33:20;99587.92;;;26.25;44.08
65013;BME280;51715;39.432;-77.518;2023-07-20T08:35:48;99586.71;;;26.04;44.02
65013;BME280;51715;39.432;-77.518;2023-07-20T08:38:16;99587.54;;;26.05;43.79
65013;BME280;51715;39.432;-77.518;2023-07-20T08:40:45;99583.38;;;26.31;43.96
65013;BME280;51715;39.432;-77.518;2023-07-20T08:43:14;99586.89;;;26.11;43.84
65013;BME280;51715;39.432;-77.518;2023-07-20T08:45:45;99587.61;;;26.13;43.70
65013;BME280;51715;39.432;-77.518;2023-07-20T08:48:15;99590.36;;;25.85;43.69
65013;BME280;51715;39.432;-77.518;2023-07-20T08:50:47;99595.16;;;25.80;43.82
65013;BME280;51715;39.432;-77.518;2023-07-20T08:53:18;99595.53;;;26.04;43.84
65013;BME280;51715;39.432;-77.518;2023-07-20T08:55:46;99592.15;;;26.02;43.55
65013;BME280;51715;39.432;-77.518;2023-07-20T08:58:17;99588.08;;;25.95;43.54
65013;BME280;51715;39.432;-77.518;2023-07-20T09:00:46;99583.92;;;26.14;43.73
65013;BME280;51715;39.432;-77.518;2023-07-20T09:03:15;99580.90;;;25.92;43.98
65013;BME280;51715;39.432;-77.518;2023-07-20T09:05:45;99579.99;;;25.87;44.02
65013;BME280;51715;39.432;-77.518;2023-07-20T09:08:13;99578.99;;;25.82;44.28
65013;BME280;51715;39.432;-77.518;2023-07-20T09:10:41;99579.58;;;26.00;44.43
65013;BME280;51715;39.432;-77.518;2023-07-20T09:13:10;99582.70;;;25.88;44.66
65013;BME280;51715;39.432;-77.518;2023-07-20T09:15:46;99581.61;;;25.87;44.64
65013;BME280;51715;39.432;-77.518;2023-07-20T09:18:24;99582.45;;;25.88;44.46
65013;BME280;51715;39.432;-77.518;2023-07-20T09:20:52;99585.27;;;25.93;44.45
65013;BME280;51715;39.432;-77.518;2023-07-20T09:23:20;99590.45;;;25.95;44.48
65013;BME280;51715;39.432;-77.518;2023-07-20T09:25:57;99594.94;;;25.75;44.86
65013;BME280;51715;39.432;-77.518;2023-07-20T09:28:26;99598.53;;;25.81;45.04
65013;BME280;51715;39.432;-77.518;2023-07-20T09:30:56;99603.02;;;25.87;44.86
65013;BME280;51715;39.432;-77.518;2023-07-20T09:33:24;99610.25;;;26.17;44.73
65013;BME280;51715;39.432;-77.518;2023-07-20T09:35:52;99617.05;;;25.70;44.62
65013;BME280;51715;39.432;-77.518;2023-07-20T09:38:20;99620.08;;;26.23;44.38
65013;BME280;51715;39.432;-77.518;2023-07-20T09:40:50;99617.39;;;26.27;43.93
65013;BME280;51715;39.432;-77.518;2023-07-20T09:43:18;99614.98;;;26.27;43.74
65013;BME280;51715;39.432;-77.518;2023-07-20T09:45:46;99616.71;;;26.07;43.80
65013;BME280;51715;39.432;-77.518;2023-07-20T09:48:14;99622.77;;;25.79;44.08
65013;BME280;51715;39.432;-77.518;2023-07-20T09:50:43;99627.71;;;25.81;44.24
65013;BME280;51715;39.432;-77.518;2023-07-20T09:53:17;99634.21;;;26.03;44.18
65013;BME280;51715;39.432;-77.518;2023-07-20T09:55:46;99641.13;;;26.01;44.04
65013;BME280;51715;39.432;-77.518;2023-07-20T09:58:15;99641.36;;;25.77;43.96
65013;BME280;51715;39.432;-77.518;2023-07-20T10:00:44;99635.90;;;26.06;43.85
65013;BME280;51715;39.432;-77.518;2023-07-20T10:03:16;99634.00;;;25.78;43.72
65013;BME280;51715;39.432;-77.518;2023-07-20T10:05:54;99632.79;;;26.07;43.46
65013;BME280;51715;39.432;-77.518;2023-07-20T10:08:25;99630.90;;;26.28;43.67
65013;BME280;51715;39.432;-77.518;2023-07-20T10:10:54;99629.14;;;26.06;43.88
65013;BME280;51715;39.432;-77.518;2023-07-20T10:13:27;99629.62;;;26.07;44.05
65013;BME280;51715;39.432;-77.518;2023-07-20T10:16:01;99626.78;;;26.05;44.06
65013;BME280;51715;39.432;-77.518;2023-07-20T10:18:38;99628.01;;;26.22;43.97
65013;BME280;51715;39.432;-77.518;2023-07-20T10:21:10;99625.66;;;25.92;44.26
65013;BME280;51715;39.432;-77.518;2023-07-20T10:23:39;99628.04;;;25.89;44.19
65013;BME280;51715;39.432;-77.518;2023-07-20T10:26:07;99625.24;;;25.87;44.49
65013;BME280;51715;39.432;-77.518;2023-07-20T10:28:36;99627.68;;;25.86;44.87
65013;BME280;51715;39.432;-77.518;2023-07-20T10:31:05;99628.65;;;25.66;44.39
65013;BME280;51715;39.432;-77.518;2023-07-20T10:33:35;99630.43;;;26.00;44.35
65013;BME280;51715;39.432;-77.518;2023-07-20T10:36:04;99632.25;;;26.04;44.34
65013;BME280;51715;39.432;-77.518;2023-07-20T10:38:41;99639.43;;;26.23;44.39
65013;BME280;51715;39.432;-77.518;2023-07-20T10:41:19;99644.30;;;26.01;44.61
65013;BME280;51715;39.432;-77.518;2023-07-20T10:43:49;99642.42;;;26.01;44.48
65013;BME280;51715;39.432;-77.518;2023-07-20T10:46:41;99638.29;;;26.02;44.64
65013;BME280;51715;39.432;-77.518;2023-07-20T10:49:10;99637.00;;;26.27;44.94
65013;BME280;51715;39.432;-77.518;2023-07-20T10:51:40;99640.30;;;26.02;45.15
65013;BME280;51715;39.432;-77.518;2023-07-20T10:54:09;99639.87;;;26.28;45.30
65013;BME280;51715;39.432;-77.518;2023-07-20T10:57:23;99641.77;;;25.60;45.48
65013;BME280;51715;39.432;-77.518;2023-07-20T10:59:51;99644.51;;;26.00;45.38
65013;BME280;51715;39.432;-77.518;2023-07-20T11:02:20;99642.98;;;26.08;45.12
65013;BME280;51715;39.432;-77.518;2023-07-20T11:04:48;99648.18;;;26.46;45.11
65013;BME280;51715;39.432;-77.518;2023-07-20T11:07:17;99654.72;;;26.30;44.88
65013;BME280;51715;39.432;-77.518;2023-07-20T11:09:46;99658.86;;;26.40;44.89
65013;BME280;51715;39.432;-77.518;2023-07-20T11:12:17;99658.03;;;26.44;44.74
65013;BME280;51715;39.432;-77.518;2023-07-20T11:14:55;99658.09;;;26.53;44.81
65013;BME280;51715;39.432;-77.518;2023-07-20T11:17:30;99655.93;;;26.64;44.78
65013;BME280;51715;39.432;-77.518;2023-07-20T11:20:05;99661.89;;;26.77;44.56
65013;BME280;51715;39.432;-77.518;2023-07-20T11:22:34;99660.99;;;26.85;44.58
65013;BME280;51715;39.432;-77.518;2023-07-20T11:25:03;99659.78;;;26.70;44.21
65013;BME280;51715;39.432;-77.518;2023-07-20T11:27:31;99659.95;;;26.86;44.29
65013;BME280;51715;39.432;-77.518;2023-07-20T11:29:59;99662.07;;;26.99;44.12
65013;BME280;51715;39.432;-77.518;2023-07-20T11:32:26;99663.04;;;26.93;44.05
65013;BME280;51715;39.432;-77.518;2023-07-20T11:34:55;99663.23;;;27.09;43.91
65013;BME280;51715;39.432;-77.518;2023-07-20T11:37:23;99662.59;;;27.25;43.62
65013;BME280;51715;39.432;-77.518;2023-07-20T11:39:56;99664.24;;;27.81;43.50
65013;BME280;51715;39.432;-77.518;2023-07-20T11:42:25;99661.03;;;27.86;42.67
65013;BME280;51715;39.432;-77.518;2023-07-20T11:44:53;99662.12;;;27.51;42.55
65013;BME280;51715;39.432;-77.518;2023-07-20T11:47:21;99660.33;;;27.31;42.30
65013;BME280;51715;39.432;-77.518;2023-07-20T11:49:50;99660.58;;;27.68;41.86
65013;BME280;51715;39.432;-77.518;2023-07-20T11:52:18;99667.69;;;27.79;41.86
65013;BME280;51715;39.432;-77.518;2023-07-20T11:54:47;99671.52;;;27.74;41.56
65013;BME280;51715;39.432;-77.518;2023-07-20T11:57:17;99673.79;;;27.89;41.62
65013;BME280;51715;39.432;-77.518;2023-07-20T11:59:53;99676.26;;;28.11;41.84
65013;BME280;51715;39.432;-77.518;2023-07-20T12:02:22;99678.47;;;28.07;41.46
65013;BME280;51715;39.432;-77.518;2023-07-20T12:04:50;99677.14;;;28.48;41.08
65013;BME280;51715;39.432;-77.518;2023-07-20T12:07:19;99674.90;;;28.41;40.70
65013;BME280;51715;39.432;-77.518;2023-07-20T12:10:04;99674.40;;;28.01;40.69
65013;BME280;51715;39.432;-77.518;2023-07-20T12:12:32;99673.99;;;28.26;40.88
65013;BME280;51715;39.432;-77.518;2023-07-20T12:15:14;99667.42;;;28.52;40.74
65013;BME280;51715;39.432;-77.518;2023-07-20T12:17:44;99667.14;;;28.72;39.87
65013;BME280;51715;39.432;-77.518;2023-07-20T12:20:12;99664.09;;;28.90;39.42
65013;BME280;51715;39.432;-77.518;2023-07-20T12:22:43;99660.83;;;28.90;39.39
65013;BME280;51715;39.432;-77.518;2023-07-20T12:25:11;99657.32;;;29.12;39.88
65013;BME280;51715;39.432;-77.518;2023-07-20T12:27:38;99657.66;;;29.09;39.26
65013;BME280;51715;39.432;-77.518;2023-07-20T12:30:08;99658.34;;;28.94;39.10
65013;BME280;51715;39.432;-77.518;2023-07-20T12:32:36;99654.32;;;29.12;39.19
65013;BME280;51715;39.432;-77.518;2023-07-20T12:35:05;99655.96;;;29.29;39.32
65013;BME280;51715;39.432;-77.518;2023-07-20T12:37:33;99654.81;;;29.61;38.62
65013;BME280;51715;39.432;-77.518;2023-07-20T12:40:02;99653.06;;;29.16;39.63
65013;BME280;51715;39.432;-77.518;2023-07-20T12:42:30;99648.46;;;29.25;38.42
65013;BME280;51715;39.432;-77.518;2023-07-20T12:44:58;99649.76;;;29.92;38.62
65013;BME280;51715;39.432;-77.518;2023-07-20T12:47:25;99651.30;;;29.61;38.60
65013;BME280;51715;39.432;-77.518;2023-07-20T12:49:54;99650.31;;;30.25;38.64
65013;BME280;51715;39.432;-77.518;2023-07-20T12:52:22;99647.82;;;29.91;38.14
65013;BME280;51715;39.432;-77.518;2023-07-20T12:54:50;99650.42;;;29.76;37.45